Time;durP1;ratioP1;P1;durP2;ratioP2;P2;SDS_P1;SDS_P2;PMS_P1;PMS_P2;Temp;Humidity;BMP_temperature;BMP_pressure;BME280_temperature;BME280_humidity;BME280_pressure;Samples;Min_cycle;Max_cycle;Signal;HPM_P1;HPM_P2
2021/08/08 00:02:21;;;;;;;3.10;1.23;;;;;;;17.18;82.94;99679.88;4967167;28;20453;-81
2021/08/08 00:04:48;;;;;;;3.60;1.52;;;;;;;17.19;83.07;99680.75;4963986;28;20379;-81
2021/08/08 00:07:13;;;;;;;3.85;1.23;;;;;;;17.16;82.95;99680.88;4967644;28;20057;-80
2021/08/08 00:09:39;;;;;;;3.40;1.40;;;;;;;17.12;83.11;99684.63;4965899;28;20039;-80
2021/08/08 00:12:04;;;;;;;4.05;1.40;;;;;;;17.11;82.95;99674.91;4968486;28;20035;-80
2021/08/08 00:14:29;;;;;;;3.53;1.35;;;;;;;17.08;83.20;99676.78;4965935;28;20116;-80
2021/08/08 00:16:55;;;;;;;2.95;1.58;;;;;;;17.08;83.03;99687.44;4968447;28;20038;-80
2021/08/08 00:19:20;;;;;;;7.97;1.73;;;;;;;17.04;83.38;99683.19;4964931;28;20061;-80
2021/08/08 00:21:45;;;;;;;2.65;1.55;;;;;;;17.04;83.19;99675.19;4968304;28;20440;-80
2021/08/08 00:24:11;;;;;;;4.90;2.20;;;;;;;17.04;82.62;99675.19;4960837;28;20031;-80
2021/08/08 00:26:36;;;;;;;5.07;1.70;;;;;;;17.00;82.88;99667.41;4965294;28;20035;-79
2021/08/08 00:29:02;;;;;;;3.22;1.50;;;;;;;16.99;82.67;99661.22;4952146;28;20050;-80
2021/08/08 00:31:27;;;;;;;3.15;1.45;;;;;;;16.95;83.10;99662.31;4964875;28;20097;-80
2021/08/08 00:33:56;;;;;;;3.88;1.95;;;;;;;16.97;82.66;99660.41;4965930;28;20501;-80
2021/08/08 00:36:22;;;;;;;4.82;1.80;;;;;;;16.97;82.43;99671.06;4945657;28;20031;-80
2021/08/08 00:38:51;;;;;;;3.20;1.55;;;;;;;16.96;82.12;99669.34;4965525;28;20046;-80
2021/08/08 00:41:17;;;;;;;2.90;1.50;;;;;;;16.96;82.21;99669.34;4948876;28;20089;-79
2021/08/08 00:43:43;;;;;;;6.13;1.70;;;;;;;16.93;82.26;99677.50;4967055;28;20035;-81
2021/08/08 00:46:09;;;;;;;3.08;1.42;;;;;;;16.91;82.64;99684.69;4963912;28;20038;-81
2021/08/08 00:48:34;;;;;;;4.28;1.50;;;;;;;16.86;82.35;99686.69;4967179;28;20039;-81
2021/08/08 00:51:00;;;;;;;4.10;1.40;;;;;;;16.91;81.92;99690.03;4965028;28;20085;-81
2021/08/08 00:53:39;;;;;;;4.28;1.60;;;;;;;16.89;81.93;99691.03;4950821;28;20031;-81
2021/08/08 00:56:05;;;;;;;5.95;1.50;;;;;;;16.89;82.17;99688.34;4963720;28;20498;-81
2021/08/08 00:58:31;;;;;;;2.90;1.42;;;;;;;16.87;81.87;99685.75;4966580;28;20074;-80
2021/08/08 01:01:02;;;;;;;4.57;2.08;;;;;;;16.86;81.95;99686.69;4960751;28;20529;-80
2021/08/08 01:03:29;;;;;;;3.72;1.80;;;;;;;16.83;82.10;99687.69;4965168;28;20031;-80
2021/08/08 01:06:12;;;;;;;5.63;1.65;;;;;;;16.81;82.06;99686.03;4933326;28;20031;-81
2021/08/08 01:08:44;;;;;;;3.00;1.70;;;;;;;16.78;81.95;99691.50;4964639;28;20038;-81
2021/08/08 01:11:11;;;;;;;4.85;1.70;;;;;;;16.75;82.11;99700.47;4959752;28;20030;-80
2021/08/08 01:13:37;;;;;;;3.90;1.83;;;;;;;16.70;82.63;99696.28;4965198;28;20038;-81
2021/08/08 01:16:04;;;;;;;5.95;1.67;;;;;;;16.70;82.34;99696.28;4964365;28;20089;-81
2021/08/08 01:18:31;;;;;;;3.58;1.80;;;;;;;16.67;82.54;99694.63;4970431;28;20053;-80
2021/08/08 01:21:00;;;;;;;4.10;1.50;;;;;;;16.62;82.51;99694.81;4977075;28;20035;-80
2021/08/08 01:23:31;;;;;;;6.30;1.92;;;;;;;16.56;83.15;99704.91;4966137;28;20034;-81
2021/08/08 01:25:57;;;;;;;4.35;1.33;;;;;;;16.52;83.20;99704.16;4963485;28;20035;-79
2021/08/08 01:28:23;;;;;;;6.68;1.75;;;;;;;16.53;82.99;99715.66;4967008;28;20045;-81
2021/08/08 01:30:48;;;;;;;3.42;1.35;;;;;;;16.51;83.25;99707.75;4964331;28;20106;-81
2021/08/08 01:33:15;;;;;;;3.30;1.70;;;;;;;16.50;82.87;99699.81;4966999;28;20031;-80
2021/08/08 01:36:00;;;;;;;4.82;1.73;;;;;;;16.50;83.34;99702.50;4966325;28;20081;-81
2021/08/08 01:38:33;;;;;;;2.67;1.48;;;;;;;16.51;82.94;99691.78;4963707;28;20122;-82
2021/08/08 01:41:03;;;;;;;6.40;1.88;;;;;;;16.48;83.16;99686.59;4962582;28;20111;-82
2021/08/08 01:43:40;;;;;;;4.88;1.30;;;;;;;16.49;83.06;99682.97;4965123;28;20042;-81
2021/08/08 01:46:09;;;;;;;5.15;1.67;;;;;;;16.50;82.94;99682.03;4964218;28;20565;-81
2021/08/08 01:48:49;;;;;;;2.67;1.50;;;;;;;16.43;82.78;99683.25;4962706;28;20050;-81
2021/08/08 01:51:20;;;;;;;2.67;1.40;;;;;;;16.37;83.16;99688.84;4965382;28;20039;-81
2021/08/08 01:53:46;;;;;;;2.75;1.50;;;;;;;16.36;83.01;99697.75;4964322;28;20031;-80
2021/08/08 01:56:12;;;;;;;3.90;1.55;;;;;;;16.28;83.22;99699.91;4964185;28;20071;-80
2021/08/08 01:58:39;;;;;;;3.22;1.20;;;;;;;16.21;83.37;99705.47;4966264;28;20126;-81
2021/08/08 02:01:10;;;;;;;5.22;2.22;;;;;;;16.17;83.46;99708.34;4967018;28;20151;-81
2021/08/08 02:03:39;;;;;;;3.13;1.40;;;;;;;16.16;83.71;99706.59;4968975;28;20042;-82
2021/08/08 02:06:08;;;;;;;3.72;1.40;;;;;;;16.10;83.88;99713.03;4949849;28;20477;-81
2021/08/08 02:08:38;;;;;;;3.15;1.40;;;;;;;16.04;83.99;99710.66;4950838;28;20046;-81
2021/08/08 02:11:10;;;;;;;3.85;1.58;;;;;;;15.98;84.09;99716.22;4968385;28;20026;-81
2021/08/08 02:13:50;;;;;;;3.65;1.35;;;;;;;15.93;84.01;99715.56;4970036;28;20121;-81
2021/08/08 02:16:16;;;;;;;2.70;1.42;;;;;;;15.89;84.25;99727.25;4965697;28;20110;-81
2021/08/08 02:18:41;;;;;;;3.22;1.30;;;;;;;15.88;84.28;99728.19;4969873;28;20035;-81
2021/08/08 02:21:10;;;;;;;2.97;1.40;;;;;;;15.88;84.19;99725.53;4966635;28;20042;-81
2021/08/08 02:23:36;;;;;;;2.88;1.40;;;;;;;15.88;84.50;99728.19;4967936;28;20098;-81
2021/08/08 02:26:03;;;;;;;3.90;1.48;;;;;;;15.86;84.34;99732.69;4969657;28;20027;-81
2021/08/08 02:28:32;;;;;;;2.88;1.65;;;;;;;15.87;84.45;99731.75;4954063;28;20038;-81
2021/08/08 02:30:57;;;;;;;2.78;1.48;;;;;;;15.86;84.56;99730.03;4967794;28;20094;-81
2021/08/08 02:33:25;;;;;;;3.33;1.70;;;;;;;15.84;84.46;99732.75;4967587;28;20030;-81
2021/08/08 02:35:51;;;;;;;3.53;1.30;;;;;;;15.81;84.48;99732.03;4950880;28;20124;-81
2021/08/08 02:38:19;;;;;;;3.55;1.45;;;;;;;15.80;84.20;99738.25;4961605;28;20034;-81
2021/08/08 02:40:47;;;;;;;3.53;1.40;;;;;;;15.76;84.53;99733.06;4953940;28;20093;-81
2021/08/08 02:43:14;;;;;;;4.72;1.58;;;;;;;15.73;84.24;99725.19;4968283;28;20118;-81
2021/08/08 02:45:40;;;;;;;4.60;1.58;;;;;;;15.68;84.88;99731.59;4966433;28;20050;-81
2021/08/08 02:48:08;;;;;;;4.05;1.73;;;;;;;15.66;84.61;99736.97;4968555;28;20066;-81
2021/08/08 02:50:34;;;;;;;4.40;1.50;;;;;;;15.58;84.58;99736.41;4978677;28;20038;-81
2021/08/08 02:53:00;;;;;;;5.00;2.05;;;;;;;15.56;84.75;99746.25;4973943;28;20030;-81
2021/08/08 02:55:25;;;;;;;4.13;1.50;;;;;;;15.56;84.79;99762.19;4966333;28;20050;-81
2021/08/08 02:57:56;;;;;;;4.70;1.65;;;;;;;15.51;84.84;99774.81;4973373;28;20038;-81
2021/08/08 03:00:21;;;;;;;5.95;1.70;;;;;;;15.42;85.15;99783.16;4971559;28;20070;-81
2021/08/08 03:02:47;;;;;;;10.20;2.35;;;;;;;15.37;85.18;99785.97;4970716;28;20035;-80
2021/08/08 03:05:12;;;;;;;4.28;1.83;;;;;;;15.36;85.21;99783.38;4976989;28;20037;-81
2021/08/08 03:07:38;;;;;;;7.57;1.73;;;;;;;15.30;85.43;99785.34;4978217;28;20037;-80
2021/08/08 03:10:05;;;;;;;5.88;1.80;;;;;;;15.24;85.74;99788.22;4964093;28;20031;-81
2021/08/08 03:12:30;;;;;;;5.75;1.92;;;;;;;15.23;85.48;99794.47;4951933;28;20040;-81
2021/08/08 03:14:56;;;;;;;4.00;1.95;;;;;;;15.16;86.30;99789.44;4958838;28;20034;-81
2021/08/08 03:17:21;;;;;;;7.30;1.88;;;;;;;15.12;86.38;99786.03;4952525;28;20030;-80
2021/08/08 03:19:47;;;;;;;5.97;1.65;;;;;;;15.09;87.06;99792.31;4967197;28;20090;-80
2021/08/08 03:22:13;;;;;;;5.07;2.30;;;;;;;15.08;86.74;99789.72;4968407;28;20663;-81
2021/08/08 03:24:42;;;;;;;4.80;1.88;;;;;;;15.02;86.64;99795.25;4970714;28;20117;-80
2021/08/08 03:27:08;;;;;;;7.03;1.70;;;;;;;15.01;86.79;99798.81;4971663;28;20035;-81
2021/08/08 03:29:35;;;;;;;4.55;1.58;;;;;;;14.97;86.96;99813.16;4971638;28;20023;-80
2021/08/08 03:32:03;;;;;;;7.88;2.63;;;;;;;14.94;86.71;99823.91;4980493;28;20409;-81
2021/08/08 03:34:29;;;;;;;5.85;1.30;;;;;;;14.86;86.89;99822.38;4972448;28;20039;-81
2021/08/08 03:36:54;;;;;;;4.22;1.63;;;;;;;14.82;86.89;99820.72;4967262;28;20098;-80
2021/08/08 03:39:23;;;;;;;3.20;1.40;;;;;;;14.80;86.98;99822.59;4968226;28;20038;-80
2021/08/08 03:41:48;;;;;;;4.53;1.95;;;;;;;14.80;86.99;99827.91;4955752;28;20502;-81
2021/08/08 03:44:16;;;;;;;4.45;1.67;;;;;;;14.80;86.75;99827.00;4953654;28;20034;-80
2021/08/08 03:46:42;;;;;;;2.67;1.45;;;;;;;14.80;87.07;99829.69;4950268;28;20692;-81
2021/08/08 03:49:07;;;;;;;3.80;1.70;;;;;;;14.80;86.83;99827.91;4969384;28;20090;-81
2021/08/08 03:51:33;;;;;;;2.45;1.33;;;;;;;14.83;87.25;99834.91;4965850;28;20039;-80
2021/08/08 03:53:58;;;;;;;7.80;1.60;;;;;;;14.79;86.46;99847.41;4969276;28;20042;-80
2021/08/08 03:56:23;;;;;;;2.75;1.63;;;;;;;14.73;87.07;99844.97;4965195;28;20039;-80
2021/08/08 03:58:49;;;;;;;2.58;1.48;;;;;;;14.73;87.53;99839.66;4966546;28;20093;-80
2021/08/08 04:01:15;;;;;;;5.10;1.60;;;;;;;14.77;87.36;99843.06;4969685;28;20565;-80
2021/08/08 04:03:41;;;;;;;3.42;1.80;;;;;;;14.80;87.42;99848.28;4965379;28;20110;-80
2021/08/08 04:06:08;;;;;;;5.28;1.77;;;;;;;14.82;87.12;99855.25;4968206;28;20247;-79
2021/08/08 04:08:34;;;;;;;5.55;1.80;;;;;;;14.89;87.67;99855.94;4966331;28;20046;-80
2021/08/08 04:11:01;;;;;;;4.97;2.35;;;;;;;14.99;88.20;99859.16;4967768;28;20030;-80
2021/08/08 04:13:28;;;;;;;3.05;1.50;;;;;;;15.09;88.01;99857.88;4968106;28;20027;-81
2021/08/08 04:15:54;;;;;;;3.88;1.33;;;;;;;15.23;87.92;99858.28;4967112;28;20035;-80
2021/08/08 04:18:20;;;;;;;3.53;1.50;;;;;;;15.36;87.56;99850.72;4966125;28;20058;-80
2021/08/08 04:20:46;;;;;;;4.10;1.80;;;;;;;15.48;86.97;99846.72;4967935;28;20043;-80
2021/08/08 04:23:11;;;;;;;3.70;1.45;;;;;;;15.59;86.96;99856.97;4966071;28;20102;-80
2021/08/08 04:25:38;;;;;;;3.13;1.52;;;;;;;15.65;86.25;99860.28;4967288;28;20433;-80
2021/08/08 04:28:05;;;;;;;5.38;1.73;;;;;;;15.75;86.23;99861.69;4963389;28;20493;-81
2021/08/08 04:30:31;;;;;;;3.13;1.67;;;;;;;15.82;85.57;99861.44;4966766;28;20054;-80
2021/08/08 04:32:57;;;;;;;3.50;1.55;;;;;;;15.88;85.49;99861.22;4933704;28;20756;-81
2021/08/08 04:35:24;;;;;;;4.32;1.60;;;;;;;15.96;84.75;99861.78;4965953;28;20059;-81
2021/08/08 04:37:49;;;;;;;3.25;1.17;;;;;;;15.99;84.90;99867.84;4965418;28;20026;-82
2021/08/08 04:40:15;;;;;;;4.55;1.80;;;;;;;16.03;84.74;99865.94;4964356;28;20035;-82
2021/08/08 04:42:41;;;;;;;2.90;1.60;;;;;;;16.06;84.36;99872.94;4963822;28;20454;-82
2021/08/08 04:45:07;;;;;;;3.92;1.63;;;;;;;16.07;84.24;99888.84;4964875;28;20031;-82
2021/08/08 04:47:33;;;;;;;3.60;1.42;;;;;;;16.11;84.09;99909.13;4953443;28;20437;-82
2021/08/08 04:50:00;;;;;;;5.68;1.42;;;;;;;16.16;83.89;99899.13;4940963;28;20034;-84
2021/08/08 04:52:36;;;;;;;3.05;1.45;;;;;;;16.17;83.48;99905.34;4952188;28;20073;-82
2021/08/08 04:55:02;;;;;;;2.97;1.42;;;;;;;16.22;83.55;99911.34;4950916;28;20030;-79
2021/08/08 04:57:27;;;;;;;3.35;1.50;;;;;;;16.28;83.38;99911.09;4972307;28;20087;-80
2021/08/08 04:59:53;;;;;;;4.65;1.50;;;;;;;16.31;83.07;99921.63;4966030;28;20035;-79
2021/08/08 05:02:20;;;;;;;4.13;1.30;;;;;;;16.36;82.94;99919.66;4965812;28;20047;-80
2021/08/08 05:04:46;;;;;;;4.00;1.40;;;;;;;16.39;82.68;99908.00;4963204;28;20446;-79
2021/08/08 05:07:12;;;;;;;4.22;1.50;;;;;;;16.41;82.56;99911.50;4963606;28;20031;-80
2021/08/08 05:09:37;;;;;;;4.07;1.30;;;;;;;16.44;82.15;99911.34;4933683;28;20751;-80
2021/08/08 05:12:03;;;;;;;3.42;1.23;;;;;;;16.48;82.29;99909.44;4946116;28;20031;-80
2021/08/08 05:14:32;;;;;;;5.05;1.40;;;;;;;16.47;82.09;99915.69;4964535;28;20520;-80
2021/08/08 05:16:59;;;;;;;3.83;1.38;;;;;;;16.42;82.37;99913.22;4963554;28;20133;-80
2021/08/08 05:19:25;;;;;;;3.28;1.23;;;;;;;16.44;81.92;99916.69;4962127;28;20039;-79
2021/08/08 05:21:51;;;;;;;4.30;1.30;;;;;;;16.49;81.99;99905.84;4965648;28;20041;-80
2021/08/08 05:24:19;;;;;;;3.58;1.50;;;;;;;16.64;81.41;99919.41;4948274;28;20043;-80
2021/08/08 05:26:45;;;;;;;6.30;1.10;;;;;;;16.75;81.12;99912.78;4966065;28;20030;-80
2021/08/08 05:29:11;;;;;;;2.13;1.00;;;;;;;16.85;81.18;99903.50;4966304;28;20435;-80
2021/08/08 05:31:36;;;;;;;2.75;1.00;;;;;;;16.95;80.68;99910.19;4964863;28;20142;-80
2021/08/08 05:34:02;;;;;;;2.63;1.17;;;;;;;17.07;80.56;99914.97;4952598;28;20130;-80
2021/08/08 05:36:27;;;;;;;5.28;1.10;;;;;;;17.13;80.04;99900.50;4950865;28;20050;-80
2021/08/08 05:38:52;;;;;;;6.20;1.20;;;;;;;17.19;79.41;99902.06;4971276;28;20077;-80
2021/08/08 05:41:18;;;;;;;5.68;1.10;;;;;;;17.31;79.46;99906.84;4950958;29;20035;-80
2021/08/08 05:43:43;;;;;;;3.35;1.33;;;;;;;17.41;79.35;99908.19;4969547;28;20074;-80
2021/08/08 05:46:09;;;;;;;2.97;1.17;;;;;;;17.49;78.99;99906.03;4950548;28;20122;-80
2021/08/08 05:48:34;;;;;;;6.53;1.52;;;;;;;17.48;78.05;99903.47;4969413;28;20045;-79
2021/08/08 05:51:00;;;;;;;4.03;0.90;;;;;;;17.66;77.83;99912.44;4966534;28;20086;-80
2021/08/08 05:53:26;;;;;;;3.25;1.00;;;;;;;17.77;77.78;99920.81;4966409;28;20035;-80
2021/08/08 05:55:51;;;;;;;4.72;1.20;;;;;;;17.84;77.81;99919.63;4953687;28;20046;-80
2021/08/08 05:58:18;;;;;;;2.03;0.82;;;;;;;17.94;77.09;99925.41;4965954;28;20038;-80
2021/08/08 06:00:45;;;;;;;2.67;1.10;;;;;;;18.06;76.78;99916.84;4968924;28;20038;-79
2021/08/08 06:03:11;;;;;;;4.95;1.10;;;;;;;18.16;76.23;99922.63;4950225;28;20043;-80
2021/08/08 06:05:38;;;;;;;4.00;1.00;;;;;;;18.25;75.75;99924.84;4952535;28;20482;-79
2021/08/08 06:08:05;;;;;;;2.42;1.10;;;;;;;18.37;75.18;99928.75;4966738;28;20054;-79
2021/08/08 06:10:30;;;;;;;2.00;0.88;;;;;;;18.45;75.51;99920.34;4969287;28;20557;-79
2021/08/08 06:12:56;;;;;;;2.45;0.75;;;;;;;18.54;74.15;99938.59;4951095;28;20031;-79
2021/08/08 06:15:22;;;;;;;2.40;1.30;;;;;;;18.61;73.83;99934.69;4967982;28;20169;-79
2021/08/08 06:17:49;;;;;;;2.10;0.90;;;;;;;18.73;73.22;99938.56;4956588;28;20035;-79
2021/08/08 06:20:14;;;;;;;6.70;1.10;;;;;;;18.89;73.21;99954.75;4966462;28;20035;-79
2021/08/08 06:22:42;;;;;;;3.25;0.70;;;;;;;18.96;72.41;99940.13;4967067;28;20035;-79
2021/08/08 06:25:08;;;;;;;2.88;0.77;;;;;;;18.98;72.12;99938.25;4967228;28;20565;-79
2021/08/08 06:27:33;;;;;;;3.97;0.90;;;;;;;19.06;71.59;99944.06;4968089;28;20038;-80
2021/08/08 06:29:59;;;;;;;1.63;0.70;;;;;;;19.14;70.51;99931.19;4967571;28;20031;-79
2021/08/08 06:32:24;;;;;;;2.65;1.00;;;;;;;19.25;70.84;99947.53;4966698;28;20089;-79
2021/08/08 06:34:50;;;;;;;2.40;0.68;;;;;;;19.32;70.40;99947.25;4950882;28;20043;-80
2021/08/08 06:37:16;;;;;;;2.72;0.80;;;;;;;19.42;69.94;99943.16;4966612;28;20429;-79
2021/08/08 06:39:41;;;;;;;2.13;0.73;;;;;;;19.47;70.23;99939.28;4967385;28;20039;-79
2021/08/08 06:42:07;;;;;;;4.55;0.80;;;;;;;19.56;68.99;99939.75;4966834;28;20031;-79
2021/08/08 06:44:39;;;;;;;1.88;0.63;;;;;;;19.61;68.65;99943.91;4967298;28;20039;-79
2021/08/08 06:47:05;;;;;;;3.08;0.85;;;;;;;19.47;67.57;99947.31;4965245;28;20035;-79
2021/08/08 06:49:30;;;;;;;2.83;0.70;;;;;;;19.67;68.56;99951.63;4969497;28;20033;-79
2021/08/08 06:51:56;;;;;;;4.90;0.85;;;;;;;19.76;66.51;99958.31;4965588;28;20039;-79
2021/08/08 06:54:22;;;;;;;3.17;0.80;;;;;;;19.74;66.34;99959.34;4968114;28;20361;-80
2021/08/08 06:56:48;;;;;;;3.25;0.80;;;;;;;19.86;67.23;99962.25;4949103;28;20142;-79
2021/08/08 06:59:13;;;;;;;4.70;1.20;;;;;;;19.88;66.25;99963.00;4969613;28;20536;-79
2021/08/08 07:01:39;;;;;;;3.60;0.90;;;;;;;19.85;65.52;99967.66;4964855;28;20042;-80
2021/08/08 07:04:05;;;;;;;3.42;0.68;;;;;;;19.85;65.91;99970.34;4968440;28;20032;-80
2021/08/08 07:06:30;;;;;;;2.30;0.85;;;;;;;19.88;66.08;99972.84;4965046;28;20721;-80
2021/08/08 07:08:57;;;;;;;3.90;0.90;;;;;;;19.99;65.89;99978.53;4967691;28;20133;-80
2021/08/08 07:11:23;;;;;;;2.63;0.70;;;;;;;20.11;66.27;99969.81;4965108;28;20062;-79
2021/08/08 07:13:49;;;;;;;2.55;0.60;;;;;;;20.25;65.40;99976.22;4951746;28;20117;-80
2021/08/08 07:16:14;;;;;;;3.33;0.70;;;;;;;20.37;65.70;99978.22;4966194;28;20078;-80
2021/08/08 07:18:39;;;;;;;1.67;0.73;;;;;;;20.61;65.36;99983.19;4967624;28;20054;-80
2021/08/08 07:21:05;;;;;;;3.30;0.80;;;;;;;20.70;64.18;99978.19;4966841;28;20450;-80
2021/08/08 07:23:30;;;;;;;6.38;0.90;;;;;;;20.93;64.33;99984.03;4966826;28;20391;-80
2021/08/08 07:25:56;;;;;;;2.10;0.60;;;;;;;20.99;63.19;99978.34;4965021;28;20043;-80
2021/08/08 07:28:21;;;;;;;2.70;0.63;;;;;;;21.01;62.05;99977.28;4966601;28;20047;-80
2021/08/08 07:30:47;;;;;;;2.50;0.63;;;;;;;20.98;61.96;99981.94;4965003;28;20061;-80
2021/08/08 07:33:12;;;;;;;2.47;0.70;;;;;;;21.08;60.57;99983.16;4968148;28;20034;-79
2021/08/08 07:35:40;;;;;;;4.07;1.25;;;;;;;21.11;62.33;99988.31;4965088;28;20038;-80
2021/08/08 07:38:06;;;;;;;1.40;0.60;;;;;;;21.04;61.60;99986.97;4952989;28;20037;-80
2021/08/08 07:40:33;;;;;;;2.72;0.60;;;;;;;21.04;60.54;99984.28;4965822;28;20410;-80
2021/08/08 07:43:00;;;;;;;2.45;0.73;;;;;;;21.16;58.67;99996.13;4949873;28;20413;-80
2021/08/08 07:45:26;;;;;;;2.88;0.60;;;;;;;21.21;58.92;99994.88;4949542;28;20131;-80
2021/08/08 07:47:52;;;;;;;2.75;0.70;;;;;;;21.27;57.80;100008.91;4965358;28;20034;-80
2021/08/08 07:50:18;;;;;;;1.92;0.63;;;;;;;21.26;59.00;100010.72;4965929;28;20122;-80
2021/08/08 07:52:44;;;;;;;1.75;0.60;;;;;;;21.37;56.79;100002.91;4964869;28;20027;-80
2021/08/08 07:55:11;;;;;;;2.58;0.82;;;;;;;21.50;56.57;100011.13;4965817;28;20046;-80
2021/08/08 07:57:37;;;;;;;2.33;0.70;;;;;;;21.57;56.28;100009.81;4948389;28;20050;-80
2021/08/08 08:00:05;;;;;;;4.35;0.55;;;;;;;21.58;56.55;100008.84;4950872;28;20034;-80
2021/08/08 08:02:32;;;;;;;1.55;0.60;;;;;;;21.52;56.67;100019.97;4965105;28;20591;-80
2021/08/08 08:04:59;;;;;;;1.75;0.65;;;;;;;21.50;57.05;100012.94;4967018;28;20421;-80
2021/08/08 08:07:24;;;;;;;2.92;0.80;;;;;;;21.28;55.87;100022.25;4963290;28;20039;-80
2021/08/08 08:09:50;;;;;;;4.82;0.70;;;;;;;21.50;56.41;100010.25;4966816;28;20045;-79
2021/08/08 08:12:16;;;;;;;1.85;0.70;;;;;;;21.46;56.28;100020.34;4963276;28;20685;-80
2021/08/08 08:14:41;;;;;;;2.85;0.50;;;;;;;21.42;56.46;100013.41;4967486;28;20092;-80
2021/08/08 08:17:07;;;;;;;4.97;0.50;;;;;;;21.33;53.95;100024.66;4963041;28;20114;-79
2021/08/08 08:19:32;;;;;;;2.92;0.60;;;;;;;21.51;54.38;100033.47;4967929;28;20035;-80
2021/08/08 08:21:58;;;;;;;1.50;0.70;;;;;;;21.57;54.29;100022.38;4965849;28;20077;-80
2021/08/08 08:24:23;;;;;;;4.28;0.90;;;;;;;21.67;54.84;100027.09;4950238;28;20035;-80
2021/08/08 08:26:49;;;;;;;2.17;1.02;;;;;;;21.56;55.60;100020.63;4963286;28;20071;-80
2021/08/08 08:29:14;;;;;;;3.95;0.60;;;;;;;21.57;55.03;100025.06;4950404;28;20062;-79
2021/08/08 08:31:40;;;;;;;1.77;0.80;;;;;;;21.74;54.01;100030.25;4963728;28;20062;-80
2021/08/08 08:34:05;;;;;;;2.28;0.52;;;;;;;21.94;54.71;100031.75;4967437;28;20157;-80
2021/08/08 08:36:32;;;;;;;4.18;1.27;;;;;;;22.01;52.17;100037.63;4963303;28;20062;-80
2021/08/08 08:38:57;;;;;;;1.23;0.50;;;;;;;22.16;51.84;100031.28;4966072;28;20501;-80
2021/08/08 08:41:30;;;;;;;3.13;0.50;;;;;;;22.18;50.76;100034.72;4963416;28;20577;-80
2021/08/08 08:44:00;;;;;;;2.83;0.70;;;;;;;22.36;50.95;100039.97;4948073;28;20074;-80
2021/08/08 08:46:27;;;;;;;5.35;0.88;;;;;;;22.48;49.91;100047.25;4964912;28;20044;-80
2021/08/08 08:48:54;;;;;;;1.90;0.50;;;;;;;22.50;50.10;100039.94;4947638;28;20439;-80
2021/08/08 08:51:27;;;;;;;2.88;0.70;;;;;;;22.31;50.68;100041.09;4965818;28;20120;-80
2021/08/08 08:53:54;;;;;;;1.58;0.52;;;;;;;22.38;49.97;100055.03;4962957;28;20383;-80
2021/08/08 08:56:20;;;;;;;3.17;0.55;;;;;;;22.33;50.48;100048.22;4949051;28;20684;-79
2021/08/08 08:58:45;;;;;;;2.15;0.60;;;;;;;22.42;50.16;100058.38;4959795;28;20024;-80
2021/08/08 09:01:11;;;;;;;3.05;0.70;;;;;;;22.76;49.89;100060.66;4964427;28;20478;-80
2021/08/08 09:03:36;;;;;;;3.17;0.70;;;;;;;22.81;50.54;100062.19;4965433;28;20105;-80
2021/08/08 09:06:03;;;;;;;3.22;0.60;;;;;;;22.83;50.05;100060.28;4959664;28;20031;-80
2021/08/08 09:08:28;;;;;;;2.90;0.73;;;;;;;22.66;50.03;100069.41;4965045;28;20035;-80
2021/08/08 09:11:06;;;;;;;2.20;0.70;;;;;;;22.60;49.02;100069.81;4968757;28;20065;-80
2021/08/08 09:13:54;;;;;;;2.47;0.52;;;;;;;22.73;50.66;100058.16;4968563;28;20082;-80
2021/08/08 09:16:23;;;;;;;3.70;0.50;;;;;;;23.00;48.96;100068.13;4963565;28;20027;-80
2021/08/08 09:18:54;;;;;;;1.42;0.63;;;;;;;22.95;49.07;100072.91;4967798;28;20073;-80
2021/08/08 09:21:23;;;;;;;1.73;0.70;;;;;;;23.03;48.90;100076.03;4950314;29;20051;-80
2021/08/08 09:24:00;;;;;;;1.85;0.50;;;;;;;23.09;49.50;100072.06;4969444;28;20038;-80
2021/08/08 09:26:33;;;;;;;2.65;0.55;;;;;;;23.21;48.27;100067.69;4952020;28;20035;-80
2021/08/08 09:29:12;;;;;;;2.58;0.60;;;;;;;23.65;49.02;100083.56;4966748;28;20502;-80
2021/08/08 09:31:44;;;;;;;2.63;0.50;;;;;;;23.87;46.97;100082.13;4968845;28;20548;-80
2021/08/08 09:34:25;;;;;;;3.93;0.60;;;;;;;24.00;47.29;100077.66;4966938;28;20063;-80
2021/08/08 09:36:52;;;;;;;2.92;0.75;;;;;;;24.28;46.39;100087.34;4967951;28;20387;-80
2021/08/08 09:39:41;;;;;;;2.45;0.40;;;;;;;24.03;44.93;100094.47;4970582;28;20070;-80
2021/08/08 09:42:25;;;;;;;1.73;0.70;;;;;;;24.15;45.79;100100.81;4966486;28;20035;-80
2021/08/08 09:45:04;;;;;;;3.05;0.65;;;;;;;24.09;45.57;100105.78;4967687;28;20061;-80
2021/08/08 09:47:41;;;;;;;2.15;0.57;;;;;;;24.09;45.40;100097.72;4970155;28;20042;-80
2021/08/08 09:50:10;;;;;;;3.15;0.60;;;;;;;24.22;46.35;100101.28;4966962;28;20118;-80
2021/08/08 09:52:36;;;;;;;3.42;0.80;;;;;;;24.12;45.23;100108.28;4968602;28;20045;-80
2021/08/08 09:55:15;;;;;;;1.77;0.70;;;;;;;23.99;46.39;100113.66;4968609;28;20027;-80
2021/08/08 09:57:41;;;;;;;2.72;0.60;;;;;;;23.80;46.85;100124.81;4966251;28;20035;-80
2021/08/08 10:00:07;;;;;;;3.92;0.73;;;;;;;23.73;47.38;100120.81;4966827;28;20130;-78
2021/08/08 10:02:37;;;;;;;1.75;0.60;;;;;;;23.66;46.58;100127.53;4953322;28;20043;-79
2021/08/08 10:05:03;;;;;;;4.53;0.82;;;;;;;23.49;46.76;100115.19;4967053;28;20098;-80
2021/08/08 10:07:29;;;;;;;1.92;0.60;;;;;;;23.43;47.25;100116.47;4969298;28;20034;-80
2021/08/08 10:09:58;;;;;;;1.20;0.40;;;;;;;23.57;46.70;100112.84;4967543;28;20070;-80
2021/08/08 10:12:42;;;;;;;3.03;0.60;;;;;;;24.13;45.13;100120.78;4968570;28;20109;-80
2021/08/08 10:15:08;;;;;;;1.33;0.60;;;;;;;24.28;44.68;100111.63;4966578;28;20031;-80
2021/08/08 10:17:35;;;;;;;5.95;0.60;;;;;;;24.21;44.14;100121.13;4969384;28;20696;-79
2021/08/08 10:20:02;;;;;;;2.10;0.50;;;;;;;23.90;45.61;100120.53;4965004;28;20462;-80
2021/08/08 10:22:28;;;;;;;1.10;0.50;;;;;;;23.89;45.18;100129.56;4968714;28;20038;-80
2021/08/08 10:24:56;;;;;;;1.33;0.45;;;;;;;24.06;43.56;100120.34;4962372;28;20124;-79
2021/08/08 10:27:23;;;;;;;2.38;0.73;;;;;;;23.95;44.83;100118.41;4966082;28;20138;-79
2021/08/08 10:29:50;;;;;;;2.10;0.38;;;;;;;24.04;43.52;100122.28;4969262;28;20494;-80
2021/08/08 10:32:16;;;;;;;2.05;0.80;;;;;;;24.53;43.96;100124.28;4950961;28;20066;-80
2021/08/08 10:34:41;;;;;;;2.30;0.60;;;;;;;24.60;42.63;100127.41;4965811;28;20073;-80
2021/08/08 10:37:11;;;;;;;1.80;0.70;;;;;;;24.78;42.35;100123.38;4966309;28;20043;-79
2021/08/08 10:39:46;;;;;;;2.50;0.70;;;;;;;24.52;42.06;100127.09;4966641;28;20050;-80
2021/08/08 10:42:11;;;;;;;0.85;0.30;;;;;;;24.52;42.72;100132.47;4964836;28;20154;-80
2021/08/08 10:44:48;;;;;;;2.50;0.63;;;;;;;24.35;43.60;100126.41;4969175;28;20117;-79
2021/08/08 10:47:28;;;;;;;1.48;0.40;;;;;;;24.02;43.13;100135.84;4946693;29;20036;-79
2021/08/08 10:49:54;;;;;;;2.15;0.70;;;;;;;24.25;42.96;100125.31;4970049;28;20030;-80
2021/08/08 10:52:19;;;;;;;2.50;0.70;;;;;;;24.46;43.19;100123.84;4965678;28;20047;-79
2021/08/08 10:54:50;;;;;;;4.18;0.75;;;;;;;24.39;42.89;100130.63;4963760;28;20039;-79
2021/08/08 10:57:17;;;;;;;1.23;0.65;;;;;;;24.26;41.52;100129.72;4968296;28;20035;-80
2021/08/08 10:59:44;;;;;;;1.95;0.65;;;;;;;24.18;42.23;100126.72;4965786;28;20043;-79
2021/08/08 11:02:11;;;;;;;1.55;0.57;;;;;;;24.23;43.21;100116.47;4950573;28;20035;-80
2021/08/08 11:04:38;;;;;;;1.60;0.55;;;;;;;24.25;42.73;100125.31;4966622;28;20577;-80
2021/08/08 11:07:05;;;;;;;4.80;0.50;;;;;;;24.00;42.34;100131.56;4966130;28;20039;-79
2021/08/08 11:09:31;;;;;;;2.78;0.55;;;;;;;23.62;43.18;100134.97;4966510;28;20035;-79
2021/08/08 11:11:57;;;;;;;1.23;0.50;;;;;;;23.58;44.81;100131.63;4949280;28;20039;-79
2021/08/08 11:14:22;;;;;;;2.28;0.60;;;;;;;23.59;44.17;100133.34;4967442;28;20133;-80
2021/08/08 11:17:00;;;;;;;1.58;0.63;;;;;;;23.91;42.97;100133.03;4966431;28;20074;-79
2021/08/08 11:19:40;;;;;;;1.48;0.60;;;;;;;24.38;41.69;100138.81;4965405;28;20035;-80
2021/08/08 11:22:10;;;;;;;2.58;0.47;;;;;;;24.84;41.15;100130.22;4966835;28;20110;-80
2021/08/08 11:24:37;;;;;;;2.20;0.40;;;;;;;25.05;39.98;100130.47;4966485;28;20051;-80
2021/08/08 11:27:03;;;;;;;2.55;0.50;;;;;;;25.30;40.05;100125.00;4965003;28;20042;-79
2021/08/08 11:29:28;;;;;;;1.35;0.52;;;;;;;25.48;40.65;100128.19;4967566;28;20031;-80
2021/08/08 11:32:03;;;;;;;2.30;0.77;;;;;;;25.73;39.50;100124.53;4947165;29;20082;-80
2021/08/08 11:34:29;;;;;;;2.08;0.70;;;;;;;25.63;38.27;100134.28;4960947;28;20085;-79